createdAt,value
2017-11-28T00:01:06.912Z,99757.91
2017-11-28T00:02:09.367Z,99753.40
2017-11-28T00:03:11.817Z,99758.59
2017-11-28T00:04:14.305Z,99754.34
2017-11-28T00:05:16.765Z,99763.00
2017-11-28T00:06:19.257Z,99754.20
2017-11-28T00:07:21.718Z,99755.20
2017-11-28T00:08:24.288Z,99758.91
2017-11-28T00:09:26.815Z,99759.93
2017-11-28T00:10:29.280Z,99761.52
2017-11-28T00:11:31.736Z,99760.58
2017-11-28T00:12:34.189Z,99758.70
2017-11-28T00:13:36.649Z,99758.30
2017-11-28T00:14:39.104Z,99765.45
2017-11-28T00:15:41.569Z,99766.12
2017-11-28T00:16:44.023Z,99763.42
2017-11-28T00:17:46.611Z,99765.80
2017-11-28T00:18:49.078Z,99765.39
2017-11-28T00:19:51.532Z,99767.59
2017-11-28T00:20:54.007Z,99766.41
2017-11-28T00:21:56.452Z,99758.54
2017-11-28T00:22:58.915Z,99763.45
2017-11-28T00:24:01.369Z,99762.00
2017-11-28T00:25:03.845Z,99759.25
2017-11-28T00:26:06.293Z,99754.55
2017-11-28T00:27:08.750Z,99755.04
2017-11-28T00:28:11.204Z,99757.05
2017-11-28T00:29:13.678Z,99753.77
2017-11-28T00:30:16.147Z,99752.23
2017-11-28T00:31:18.614Z,99754.61
2017-11-28T00:32:21.078Z,99758.21
2017-11-28T00:33:23.540Z,99756.89
2017-11-28T00:34:26.035Z,99753.53
2017-11-28T00:35:28.502Z,99757.83
2017-11-28T00:36:31.054Z,99754.77
2017-11-28T00:37:33.527Z,99746.03
2017-11-28T00:38:36.016Z,99753.78
2017-11-28T00:39:38.483Z,99755.61
2017-11-28T00:40:40.952Z,99745.16
2017-11-28T00:41:43.400Z,99757.91
2017-11-28T00:42:45.865Z,99752.17
2017-11-28T00:43:48.330Z,99755.81
2017-11-28T00:44:50.794Z,99750.55
2017-11-28T00:45:53.251Z,99744.13
2017-11-28T00:46:55.716Z,99745.52
2017-11-28T00:47:58.164Z,99740.97
2017-11-28T00:49:00.616Z,99745.43
2017-11-28T00:50:03.063Z,99737.91
2017-11-28T00:51:05.549Z,99737.59
2017-11-28T00:52:08.023Z,99730.33
2017-11-28T00:53:10.496Z,99732.70
2017-11-28T00:54:12.959Z,99730.03
2017-11-28T00:55:15.419Z,99729.25
2017-11-28T00:56:17.879Z,99732.05
2017-11-28T00:57:20.412Z,99731.54
2017-11-28T00:58:22.892Z,99723.19
2017-11-28T00:59:25.346Z,99727.51
2017-11-28T01:00:27.810Z,99729.69
2017-11-28T01:01:30.278Z,99726.94
2017-11-28T01:02:32.747Z,99730.11
2017-11-28T01:03:35.244Z,99720.78
2017-11-28T01:04:37.710Z,99724.04
2017-11-28T01:05:40.184Z,99724.20
2017-11-28T01:06:42.652Z,99724.04
2017-11-28T01:07:45.192Z,99727.64
2017-11-28T01:08:47.641Z,99726.86
2017-11-28T01:09:50.108Z,99727.69
2017-11-28T01:10:52.582Z,99726.34
2017-11-28T01:11:55.046Z,99722.58
2017-11-28T01:12:57.492Z,99724.65
2017-11-28T01:13:59.957Z,99731.05
2017-11-28T01:15:02.407Z,99721.80
2017-11-28T01:16:04.859Z,99728.28
2017-11-28T01:17:07.318Z,99726.91
2017-11-28T01:18:09.783Z,99723.47
2017-11-28T01:19:12.250Z,99718.84
2017-11-28T01:20:14.723Z,99721.29
2017-11-28T01:21:17.195Z,99725.91
2017-11-28T01:22:19.660Z,99721.90
2017-11-28T01:23:22.121Z,99722.12
2017-11-28T01:24:24.572Z,99722.12
2017-11-28T01:25:27.030Z,99720.15
2017-11-28T01:26:29.488Z,99727.52
2017-11-28T01:27:31.958Z,99726.67
2017-11-28T01:28:34.431Z,99719.92
2017-11-28T01:29:36.912Z,99724.81
2017-11-28T01:30:39.382Z,99717.50
2017-11-28T01:31:41.855Z,99724.30
2017-11-28T01:32:44.323Z,99721.78
2017-11-28T01:33:46.776Z,99721.80
2017-11-28T01:34:49.247Z,99721.63
2017-11-28T01:35:51.700Z,99718.31
2017-11-28T01:36:54.167Z,99725.98
2017-11-28T01:37:56.631Z,99725.65
2017-11-28T01:38:59.098Z,99720.23
2017-11-28T01:40:01.570Z,99721.22
2017-11-28T01:41:04.029Z,99717.22
2017-11-28T01:42:06.507Z,99723.78
2017-11-28T01:43:08.965Z,99722.84
2017-11-28T01:44:11.415Z,99722.78
2017-11-28T01:45:13.863Z,99722.87
2017-11-28T01:46:16.330Z,99720.56
2017-11-28T01:47:18.803Z,99720.53
2017-11-28T01:48:21.262Z,99716.25
2017-11-28T01:49:23.733Z,99714.54
2017-11-28T01:50:26.196Z,99711.01
2017-11-28T01:51:28.689Z,99712.94
2017-11-28T01:52:31.140Z,99712.78
2017-11-28T01:53:33.601Z,99713.02
2017-11-28T01:54:36.054Z,99715.59
2017-11-28T01:55:38.518Z,99720.30
2017-11-28T01:56:40.981Z,99708.99
2017-11-28T01:57:43.451Z,99709.50
2017-11-28T01:58:45.935Z,99711.94
2017-11-28T01:59:48.396Z,99709.42
2017-11-28T02:00:50.841Z,99709.50
2017-11-28T02:01:53.307Z,99707.08
2017-11-28T02:02:55.779Z,99712.61
2017-11-28T02:03:58.234Z,99709.03
2017-11-28T02:05:00.706Z,99707.27
2017-11-28T02:06:03.164Z,99707.69
2017-11-28T02:07:05.635Z,99703.96
2017-11-28T02:08:08.098Z,99698.48
2017-11-28T02:09:10.567Z,99702.05
2017-11-28T02:10:13.029Z,99691.27
2017-11-28T02:11:15.480Z,99693.98
2017-11-28T02:12:17.932Z,99693.96
2017-11-28T02:13:20.419Z,99693.94
2017-11-28T02:14:22.891Z,99695.47
2017-11-28T02:15:25.350Z,99694.14
2017-11-28T02:16:27.834Z,99690.52
2017-11-28T02:17:30.311Z,99690.61
2017-11-28T02:18:32.775Z,99691.97
2017-11-28T02:19:35.258Z,99691.45
2017-11-28T02:20:37.708Z,99688.34
2017-11-28T02:21:40.186Z,99687.97
2017-11-28T02:22:42.637Z,99686.63
2017-11-28T02:23:45.101Z,99689.69
2017-11-28T02:24:47.564Z,99684.61
2017-11-28T02:25:50.049Z,99685.02
2017-11-28T02:26:52.513Z,99681.00
2017-11-28T02:27:54.978Z,99680.74
2017-11-28T02:28:57.424Z,99683.27
2017-11-28T02:29:59.872Z,99680.75
2017-11-28T02:31:02.339Z,99667.59
2017-11-28T02:32:04.801Z,99674.59
2017-11-28T02:33:07.276Z,99672.05
2017-11-28T02:34:09.793Z,99671.62
2017-11-28T02:35:12.358Z,99676.29
2017-11-28T02:36:14.812Z,99671.42
2017-11-28T02:37:17.287Z,99665.52
2017-11-28T02:38:19.741Z,99664.81
2017-11-28T02:39:22.196Z,99665.27
2017-11-28T02:40:36.624Z,99659.63
2017-11-28T02:41:39.099Z,99663.23
2017-11-28T02:42:41.578Z,99662.51
2017-11-28T02:43:44.097Z,99659.28
2017-11-28T02:44:46.553Z,99659.23
2017-11-28T02:45:49.020Z,99656.30
2017-11-28T02:46:51.577Z,99653.16
2017-11-28T02:47:54.063Z,99650.36
2017-11-28T02:49:04.032Z,99642.17
2017-11-28T02:50:11.873Z,99642.30
2017-11-28T02:51:15.817Z,99640.88
2017-11-28T02:52:18.342Z,99648.59
2017-11-28T02:53:20.799Z,99644.62
2017-11-28T02:54:23.256Z,99639.05
2017-11-28T02:55:30.288Z,99641.59
2017-11-28T02:56:32.752Z,99639.73
2017-11-28T02:57:35.236Z,99638.41
2017-11-28T02:58:44.261Z,99630.67
2017-11-28T02:59:50.563Z,99635.72
2017-11-28T03:02:27.791Z,99631.52
2017-11-28T03:03:30.239Z,99637.77
2017-11-28T03:04:32.696Z,99636.30
2017-11-28T03:05:35.170Z,99640.53
2017-11-28T03:06:37.647Z,99631.97
2017-11-28T03:07:40.126Z,99635.22
2017-11-28T03:08:42.593Z,99637.05
2017-11-28T03:09:47.862Z,99637.74
2017-11-28T03:10:50.324Z,99645.44
2017-11-28T03:11:52.792Z,99639.67
2017-11-28T03:12:58.071Z,99641.88
2017-11-28T03:14:11.367Z,99642.63
2017-11-28T03:15:19.423Z,99643.00
2017-11-28T03:16:21.903Z,99647.01
2017-11-28T03:17:24.435Z,99642.13
2017-11-28T03:18:28.751Z,99641.37
2017-11-28T03:19:41.174Z,99642.52
2017-11-28T03:21:00.231Z,99631.11
2017-11-28T03:23:56.233Z,99637.47
2017-11-28T03:24:58.726Z,99643.47
2017-11-28T03:26:01.201Z,99642.52
2017-11-28T03:27:03.674Z,99639.83
2017-11-28T03:28:22.731Z,99643.33
2017-11-28T03:29:29.648Z,99638.97
2017-11-28T03:30:36.647Z,99636.72
2017-11-28T03:31:39.116Z,99635.45
2017-11-28T03:32:41.585Z,99633.77
2017-11-28T03:33:44.040Z,99634.22
2017-11-28T03:34:46.501Z,99633.33
2017-11-28T03:35:48.979Z,99630.61
2017-11-28T03:36:51.445Z,99625.56
2017-11-28T03:37:53.908Z,99630.61
2017-11-28T03:38:56.399Z,99632.84
2017-11-28T03:39:58.879Z,99631.73
2017-11-28T03:41:01.363Z,99626.06
2017-11-28T03:42:03.847Z,99626.51
2017-11-28T03:43:06.327Z,99625.77
2017-11-28T03:46:00.981Z,99622.53
2017-11-28T03:47:03.450Z,99619.39
2017-11-28T03:48:05.918Z,99623.95
2017-11-28T03:49:08.390Z,99625.11
2017-11-28T03:50:12.618Z,99619.22
2017-11-28T03:51:15.097Z,99621.02
2017-11-28T03:52:17.561Z,99617.77
2017-11-28T03:53:20.026Z,99619.62
2017-11-28T03:54:22.502Z,99622.84
2017-11-28T03:55:24.982Z,99618.94
2017-11-28T03:56:27.472Z,99618.66
2017-11-28T03:57:29.929Z,99621.58
2017-11-28T03:58:32.405Z,99621.16
2017-11-28T03:59:34.872Z,99616.25
2017-11-28T04:00:37.334Z,99614.34
2017-11-28T04:01:39.804Z,99615.78
2017-11-28T04:02:42.270Z,99607.20
2017-11-28T04:03:44.720Z,99616.55
2017-11-28T04:04:47.196Z,99614.94
2017-11-28T04:05:49.667Z,99625.69
2017-11-28T04:06:52.155Z,99623.14
2017-11-28T04:07:54.608Z,99618.28
2017-11-28T04:08:57.068Z,99617.45
2017-11-28T04:09:59.551Z,99612.55
2017-11-28T04:11:02.048Z,99616.19
2017-11-28T04:12:04.556Z,99611.02
2017-11-28T04:13:07.022Z,99610.66
2017-11-28T04:14:09.468Z,99612.09
2017-11-28T04:15:11.934Z,99616.52
2017-11-28T04:16:14.388Z,99617.44
2017-11-28T04:17:16.857Z,99615.44
2017-11-28T04:18:19.324Z,99619.73
2017-11-28T04:19:21.790Z,99622.13
2017-11-28T04:20:24.253Z,99621.27
2017-11-28T04:21:26.712Z,99618.20
2017-11-28T04:22:29.194Z,99617.97
2017-11-28T04:23:31.663Z,99621.76
2017-11-28T04:24:34.130Z,99618.24
2017-11-28T04:25:36.585Z,99616.78
2017-11-28T04:26:39.058Z,99625.70
2017-11-28T04:27:41.550Z,99620.70
2017-11-28T04:28:43.996Z,99620.87
2017-11-28T04:29:46.475Z,99624.89
2017-11-28T04:30:48.928Z,99626.78
2017-11-28T04:31:51.431Z,99624.55
2017-11-28T04:32:53.914Z,99623.34
2017-11-28T04:33:56.382Z,99621.38
2017-11-28T04:34:58.851Z,99622.23
2017-11-28T04:36:01.364Z,99627.08
2017-11-28T04:37:03.834Z,99623.77
2017-11-28T04:38:06.307Z,99611.19
2017-11-28T04:39:08.774Z,99615.16
2017-11-28T04:40:11.229Z,99615.97
2017-11-28T04:41:13.679Z,99611.34
2017-11-28T04:42:16.145Z,99610.92
2017-11-28T04:43:18.630Z,99609.11
2017-11-28T04:44:21.102Z,99613.04
2017-11-28T04:45:23.561Z,99607.58
2017-11-28T04:46:26.017Z,99609.40
2017-11-28T04:47:28.481Z,99614.05
2017-11-28T04:48:30.961Z,99610.94
2017-11-28T04:49:33.429Z,99612.69
2017-11-28T04:50:35.890Z,99612.20
2017-11-28T04:51:38.349Z,99615.69
2017-11-28T04:52:40.804Z,99608.69
2017-11-28T04:53:43.285Z,99609.80
2017-11-28T04:54:45.739Z,99613.64
2017-11-28T04:55:48.188Z,99607.77
2017-11-28T04:56:50.644Z,99614.98
2017-11-28T04:57:53.121Z,99613.80
2017-11-28T04:58:55.605Z,99607.00
2017-11-28T04:59:58.070Z,99614.92
2017-11-28T05:01:00.524Z,99614.65
2017-11-28T05:02:02.995Z,99613.06
2017-11-28T05:03:05.461Z,99616.42
2017-11-28T05:04:07.933Z,99617.25
2017-11-28T05:05:10.398Z,99616.14
2017-11-28T05:06:12.865Z,99616.55
2017-11-28T05:07:15.344Z,99616.27
2017-11-28T05:08:17.809Z,99619.94
2017-11-28T05:09:20.279Z,99616.22
2017-11-28T05:10:22.744Z,99619.84
2017-11-28T05:11:25.192Z,99622.14
2017-11-28T05:12:27.659Z,99615.92
2017-11-28T05:13:30.126Z,99619.61
2017-11-28T05:14:32.609Z,99624.34
2017-11-28T05:15:35.077Z,99621.30
2017-11-28T05:16:37.539Z,99622.59
2017-11-28T05:17:40.019Z,99615.95
2017-11-28T05:18:42.488Z,99621.66
2017-11-28T05:19:44.994Z,99614.58
2017-11-28T05:20:47.465Z,99620.55
2017-11-28T05:21:49.942Z,99618.88
2017-11-28T05:22:52.442Z,99624.11
2017-11-28T05:23:54.939Z,99624.16
2017-11-28T05:24:57.441Z,99621.72
2017-11-28T05:25:59.928Z,99620.70
2017-11-28T05:27:02.400Z,99626.52
2017-11-28T05:28:04.901Z,99617.47
2017-11-28T05:29:07.373Z,99617.28
2017-11-28T05:30:09.922Z,99624.69
2017-11-28T05:31:12.479Z,99614.02
2017-11-28T05:32:14.957Z,99619.23
2017-11-28T05:34:35.393Z,99619.21
2017-11-28T05:35:37.885Z,99624.69
2017-11-28T05:36:40.359Z,99627.52
2017-11-28T05:37:42.812Z,99624.84
2017-11-28T05:38:45.278Z,99625.48
2017-11-28T05:39:47.754Z,99632.86
2017-11-28T05:40:50.258Z,99622.54
2017-11-28T05:41:52.739Z,99626.84
2017-11-28T05:42:55.187Z,99621.50
2017-11-28T05:43:57.654Z,99622.27
2017-11-28T05:45:00.123Z,99628.28
2017-11-28T05:46:02.596Z,99626.66
2017-11-28T05:47:05.081Z,99626.27
2017-11-28T05:48:07.558Z,99632.80
2017-11-28T05:49:10.029Z,99629.55
2017-11-28T05:50:12.502Z,99635.92
2017-11-28T05:51:14.994Z,99631.48
2017-11-28T05:52:17.448Z,99637.48
2017-11-28T05:53:24.571Z,99638.23
2017-11-28T05:54:27.099Z,99639.08
2017-11-28T05:55:29.564Z,99645.34
2017-11-28T05:56:32.041Z,99640.20
2017-11-28T05:57:34.502Z,99646.98
2017-11-28T05:58:36.964Z,99642.30
2017-11-28T05:59:39.438Z,99644.88
2017-11-28T06:00:41.919Z,99649.08
2017-11-28T06:01:44.408Z,99647.33
2017-11-28T06:02:46.881Z,99653.22
2017-11-28T06:03:49.376Z,99649.91
2017-11-28T06:04:51.851Z,99645.34
2017-11-28T06:05:54.355Z,99656.86
2017-11-28T06:06:56.914Z,99649.38
2017-11-28T06:07:59.385Z,99643.87
2017-11-28T06:09:01.844Z,99644.49
2017-11-28T06:10:04.320Z,99649.70
2017-11-28T06:11:09.654Z,99646.30
2017-11-28T06:12:12.146Z,99647.85
2017-11-28T06:13:14.648Z,99653.99
2017-11-28T06:14:17.126Z,99651.06
2017-11-28T06:15:19.580Z,99652.50
2017-11-28T06:16:22.123Z,99655.39
2017-11-28T06:17:24.613Z,99659.84
2017-11-28T06:18:27.143Z,99662.45
2017-11-28T06:19:29.665Z,99662.31
2017-11-28T06:20:32.136Z,99661.91
2017-11-28T06:21:34.609Z,99653.98
2017-11-28T06:22:37.096Z,99660.19
2017-11-28T06:23:39.546Z,99651.70
2017-11-28T06:24:42.036Z,99661.02
2017-11-28T06:25:44.492Z,99665.48
2017-11-28T06:26:46.955Z,99665.73
2017-11-28T06:27:49.462Z,99667.42
2017-11-28T06:28:51.930Z,99663.30
2017-11-28T06:29:54.393Z,99669.56
2017-11-28T06:30:56.879Z,99674.44
2017-11-28T06:31:59.337Z,99679.27
2017-11-28T06:33:01.830Z,99676.30
2017-11-28T06:34:04.299Z,99674.55
2017-11-28T06:35:06.760Z,99672.53
2017-11-28T06:36:09.217Z,99672.87
2017-11-28T06:37:11.677Z,99671.19
2017-11-28T06:38:14.159Z,99676.32
2017-11-28T06:39:16.647Z,99679.59
2017-11-28T06:40:19.118Z,99674.70
2017-11-28T06:41:21.587Z,99669.49
2017-11-28T06:42:24.057Z,99677.55
2017-11-28T06:43:26.576Z,99674.73
2017-11-28T06:44:29.051Z,99672.02
2017-11-28T06:45:31.522Z,99677.80
2017-11-28T06:46:34.723Z,99673.82
2017-11-28T06:47:37.198Z,99675.11
2017-11-28T06:48:39.704Z,99678.14
2017-11-28T06:49:42.180Z,99675.63
2017-11-28T06:50:44.648Z,99674.94
2017-11-28T06:51:47.149Z,99679.09
2017-11-28T06:52:49.624Z,99680.70
2017-11-28T06:53:52.115Z,99686.08
2017-11-28T06:54:54.591Z,99689.09
2017-11-28T06:55:57.062Z,99691.39
2017-11-28T06:57:02.985Z,99691.81
2017-11-28T06:58:05.451Z,99692.66
2017-11-28T06:59:07.936Z,99691.66
2017-11-28T07:00:10.571Z,99699.28
2017-11-28T07:01:13.049Z,99700.41
2017-11-28T07:02:15.770Z,99698.80
2017-11-28T07:03:18.220Z,99703.73
2017-11-28T07:04:20.721Z,99708.21
2017-11-28T07:05:23.190Z,99708.73
2017-11-28T07:06:25.663Z,99709.56
2017-11-28T07:07:28.143Z,99707.86
2017-11-28T07:08:30.624Z,99706.39
2017-11-28T07:09:33.100Z,99708.56
2017-11-28T07:10:35.571Z,99708.56
2017-11-28T07:11:38.053Z,99710.72
2017-11-28T07:12:40.515Z,99711.49
2017-11-28T07:13:42.987Z,99713.02
2017-11-28T07:14:45.494Z,99708.38
2017-11-28T07:15:47.978Z,99706.20
2017-11-28T07:16:50.501Z,99712.51
2017-11-28T07:17:52.961Z,99709.81
2017-11-28T07:18:55.468Z,99717.44
2017-11-28T07:19:57.959Z,99715.44
2017-11-28T07:21:00.412Z,99708.55
2017-11-28T07:22:02.887Z,99717.87
2017-11-28T07:23:05.359Z,99715.72
2017-11-28T07:24:07.820Z,99719.84
2017-11-28T07:25:10.320Z,99718.23
2017-11-28T07:26:12.842Z,99716.30
2017-11-28T07:27:15.314Z,99715.95
2017-11-28T07:28:17.786Z,99716.38
2017-11-28T07:29:20.265Z,99718.23
2017-11-28T07:30:22.761Z,99719.56
2017-11-28T07:31:25.216Z,99715.12
2017-11-28T07:32:27.675Z,99715.80
2017-11-28T07:33:30.154Z,99716.38
2017-11-28T07:34:32.617Z,99719.59
2017-11-28T07:35:35.162Z,99713.48
2017-11-28T07:36:37.622Z,99718.30
2017-11-28T07:37:40.087Z,99717.81
2017-11-28T07:38:42.566Z,99720.13
2017-11-28T07:39:45.031Z,99723.75
2017-11-28T07:40:47.528Z,99720.48
2017-11-28T07:41:49.999Z,99723.61
2017-11-28T07:42:52.457Z,99722.83
2017-11-28T07:43:55.020Z,99727.64
2017-11-28T07:44:57.480Z,99726.87
2017-11-28T07:45:59.960Z,99722.28
2017-11-28T07:47:02.420Z,99723.03
2017-11-28T07:48:04.887Z,99716.03
2017-11-28T07:49:07.371Z,99719.41
2017-11-28T07:50:09.864Z,99714.80
2017-11-28T07:51:12.353Z,99719.06
2017-11-28T07:52:14.830Z,99715.22
2017-11-28T07:53:17.303Z,99719.92
2017-11-28T07:54:19.755Z,99718.81
2017-11-28T07:55:22.233Z,99721.01
2017-11-28T07:56:24.734Z,99721.15
2017-11-28T07:57:27.213Z,99724.53
2017-11-28T07:58:29.683Z,99726.05
2017-11-28T07:59:32.145Z,99723.53
2017-11-28T08:00:34.609Z,99720.73
2017-11-28T08:01:37.089Z,99717.89
2017-11-28T08:02:39.549Z,99720.44
2017-11-28T08:03:42.030Z,99729.58
2017-11-28T08:04:44.497Z,99723.51
2017-11-28T08:05:47.040Z,99726.12
2017-11-28T08:06:49.516Z,99727.41
2017-11-28T08:07:51.988Z,99731.42
2017-11-28T08:08:54.436Z,99730.44
2017-11-28T08:09:56.908Z,99732.42
2017-11-28T08:10:59.368Z,99731.61
2017-11-28T08:12:01.884Z,99728.06
2017-11-28T08:13:04.344Z,99731.04
2017-11-28T08:14:06.819Z,99734.02
2017-11-28T08:15:09.367Z,99735.92
2017-11-28T08:16:12.163Z,99744.13
2017-11-28T08:17:14.654Z,99737.34
2017-11-28T08:18:17.219Z,99734.11
2017-11-28T08:19:19.793Z,99735.40
2017-11-28T08:20:22.247Z,99725.86
2017-11-28T08:21:24.711Z,99731.98
2017-11-28T08:22:27.193Z,99726.94
2017-11-28T08:23:29.756Z,99730.84
2017-11-28T08:24:32.212Z,99732.70
2017-11-28T08:25:34.745Z,99734.77
2017-11-28T08:26:37.226Z,99735.04
2017-11-28T08:27:39.704Z,99737.60
2017-11-28T08:28:42.164Z,99732.88
2017-11-28T08:29:44.628Z,99734.23
2017-11-28T08:30:47.098Z,99736.05
2017-11-28T08:31:49.576Z,99729.79
2017-11-28T08:32:52.061Z,99728.43
2017-11-28T08:33:54.540Z,99733.39
2017-11-28T08:34:57.799Z,99730.12
2017-11-28T08:36:00.275Z,99729.32
2017-11-28T08:37:02.764Z,99729.18
2017-11-28T08:38:05.254Z,99731.47
2017-11-28T08:39:07.734Z,99731.33
2017-11-28T08:40:10.188Z,99729.64
2017-11-28T08:41:12.647Z,99733.42
2017-11-28T08:42:15.123Z,99729.59
2017-11-28T08:43:17.612Z,99727.16
2017-11-28T08:44:20.087Z,99727.70
2017-11-28T08:45:22.557Z,99731.48
2017-11-28T08:46:25.013Z,99727.44
2017-11-28T08:47:27.467Z,99728.27
2017-11-28T08:48:29.940Z,99725.84
2017-11-28T08:49:32.414Z,99726.09
2017-11-28T08:50:34.876Z,99725.79
2017-11-28T08:51:37.337Z,99724.31
2017-11-28T08:52:39.840Z,99733.55
2017-11-28T08:53:42.318Z,99726.16
2017-11-28T08:54:44.772Z,99733.24
2017-11-28T08:55:47.246Z,99737.64
2017-11-28T08:56:49.717Z,99728.48
2017-11-28T08:57:52.173Z,99735.68
2017-11-28T08:58:54.735Z,99729.52
2017-11-28T08:59:57.192Z,99729.87
2017-11-28T09:00:59.656Z,99725.29
2017-11-28T09:02:02.120Z,99731.30
2017-11-28T09:03:04.586Z,99725.86
2017-11-28T09:04:07.069Z,99725.91
2017-11-28T09:05:09.553Z,99726.33
2017-11-28T09:06:12.052Z,99722.16
2017-11-28T09:07:14.568Z,99714.59
2017-11-28T09:08:17.037Z,99721.02
2017-11-28T09:09:19.546Z,99721.03
2017-11-28T09:10:22.022Z,99723.58
2017-11-28T09:11:24.513Z,99715.79
2017-11-28T09:12:26.972Z,99719.18
2017-11-28T09:13:29.425Z,99727.30
2017-11-28T09:14:31.919Z,99726.98
2017-11-28T09:15:34.397Z,99728.48
2017-11-28T09:16:36.874Z,99728.72
2017-11-28T09:17:39.328Z,99724.86
2017-11-28T09:18:41.788Z,99731.12
2017-11-28T09:19:44.293Z,99730.48
2017-11-28T09:20:46.743Z,99724.30
2017-11-28T09:21:49.203Z,99723.39
2017-11-28T09:22:51.670Z,99731.80
2017-11-28T09:23:54.137Z,99730.73
2017-11-28T09:24:56.620Z,99728.58
2017-11-28T09:25:59.085Z,99723.72
2017-11-28T09:27:01.563Z,99733.77
2017-11-28T09:28:04.021Z,99732.06
2017-11-28T09:29:06.495Z,99732.98
2017-11-28T09:30:08.986Z,99742.50
2017-11-28T09:31:11.462Z,99735.81
2017-11-28T09:32:13.917Z,99731.10
2017-11-28T09:33:16.403Z,99736.11
2017-11-28T09:34:18.852Z,99739.87
2017-11-28T09:35:21.346Z,99745.30
2017-11-28T09:36:23.813Z,99738.16
2017-11-28T09:37:26.299Z,99742.44
2017-11-28T09:38:28.777Z,99743.98
2017-11-28T09:39:31.228Z,99743.70
2017-11-28T09:40:33.717Z,99740.31
2017-11-28T09:41:36.173Z,99744.88
2017-11-28T09:42:38.661Z,99742.14
2017-11-28T09:43:41.116Z,99737.98
2017-11-28T09:44:43.585Z,99740.71
2017-11-28T09:45:46.073Z,99742.78
2017-11-28T09:46:48.537Z,99737.34
2017-11-28T09:47:51.018Z,99740.86
2017-11-28T09:48:53.482Z,99741.66
2017-11-28T09:49:55.944Z,99742.48
2017-11-28T09:50:58.440Z,99736.38
2017-11-28T09:52:00.912Z,99744.23
2017-11-28T09:53:03.382Z,99738.95
2017-11-28T09:54:05.850Z,99734.75
2017-11-28T09:55:08.317Z,99738.02
2017-11-28T09:56:10.889Z,99730.09
2017-11-28T09:57:13.359Z,99726.02
2017-11-28T09:58:15.868Z,99734.95
2017-11-28T09:59:18.330Z,99730.36
2017-11-28T10:00:20.780Z,99731.84
2017-11-28T10:01:23.256Z,99722.23
2017-11-28T10:02:25.733Z,99727.48
2017-11-28T10:03:28.178Z,99730.96
2017-11-28T10:04:30.642Z,99727.78
2017-11-28T10:05:33.130Z,99729.33
2017-11-28T10:06:35.609Z,99732.70
2017-11-28T10:07:38.369Z,99727.34
2017-11-28T10:08:40.834Z,99727.01
2017-11-28T10:09:43.312Z,99726.47
2017-11-28T10:10:45.780Z,99724.68
2017-11-28T10:11:48.271Z,99733.20
2017-11-28T10:12:50.744Z,99728.19
2017-11-28T10:13:53.210Z,99727.61
2017-11-28T10:14:55.671Z,99730.31
2017-11-28T10:15:58.128Z,99727.80
2017-11-28T10:17:00.615Z,99730.55
2017-11-28T10:18:03.078Z,99726.73
2017-11-28T10:19:05.542Z,99731.52
2017-11-28T10:20:08.007Z,99727.92
2017-11-28T10:21:10.486Z,99731.53
2017-11-28T10:22:13.024Z,99728.48
2017-11-28T10:23:15.485Z,99724.00
2017-11-28T10:24:17.950Z,99730.39
2017-11-28T10:25:20.400Z,99727.16
2017-11-28T10:26:22.852Z,99729.14
2017-11-28T10:27:25.329Z,99729.96
2017-11-28T10:28:27.792Z,99724.11
2017-11-28T10:29:30.272Z,99725.09
2017-11-28T10:30:32.728Z,99722.33
2017-11-28T10:31:35.181Z,99729.08
2017-11-28T10:32:37.657Z,99721.70
2017-11-28T10:33:40.116Z,99719.73
2017-11-28T10:34:42.607Z,99722.08
2017-11-28T10:35:45.070Z,99722.62
2017-11-28T10:36:47.544Z,99723.61
2017-11-28T10:37:50.021Z,99714.78
2017-11-28T10:38:52.486Z,99714.41
2017-11-28T10:39:54.935Z,99716.73
2017-11-28T10:40:57.383Z,99716.48
2017-11-28T10:41:59.854Z,99713.56
2017-11-28T10:43:02.350Z,99707.88
2017-11-28T10:44:04.818Z,99706.33
2017-11-28T10:45:07.276Z,99709.91
2017-11-28T10:46:09.731Z,99710.47
2017-11-28T10:47:12.204Z,99713.86
2017-11-28T10:48:14.738Z,99711.91
2017-11-28T10:49:17.210Z,99718.91
2017-11-28T10:50:19.678Z,99714.98
2017-11-28T10:51:22.132Z,99708.97
2017-11-28T10:52:24.631Z,99710.46
2017-11-28T10:53:27.122Z,99718.69
2017-11-28T10:54:29.584Z,99709.55
2017-11-28T10:55:32.037Z,99705.98
2017-11-28T10:56:34.508Z,99703.00
2017-11-28T10:57:36.972Z,99706.53
2017-11-28T10:58:39.457Z,99706.22
2017-11-28T10:59:41.912Z,99701.23
2017-11-28T11:00:44.363Z,99701.91
2017-11-28T11:01:46.818Z,99702.45
2017-11-28T11:02:49.269Z,99694.27
2017-11-28T11:03:51.760Z,99701.38
2017-11-28T11:04:54.213Z,99693.72
2017-11-28T11:05:56.733Z,99696.20
2017-11-28T11:06:59.210Z,99701.53
2017-11-28T11:08:01.666Z,99688.87
2017-11-28T11:09:04.153Z,99697.54
2017-11-28T11:10:06.879Z,99695.09
2017-11-28T11:11:09.522Z,99691.36
2017-11-28T11:12:11.990Z,99690.22
2017-11-28T11:13:14.461Z,99686.81
2017-11-28T11:14:16.937Z,99685.61
2017-11-28T11:15:19.402Z,99687.51
2017-11-28T11:16:21.857Z,99681.80
2017-11-28T11:17:24.336Z,99681.34
2017-11-28T11:18:26.784Z,99683.42
2017-11-28T11:19:29.268Z,99685.55
2017-11-28T11:20:31.720Z,99684.22
2017-11-28T11:21:34.187Z,99678.27
2017-11-28T11:22:36.649Z,99683.84
2017-11-28T11:23:39.226Z,99683.41
2017-11-28T11:24:41.714Z,99683.70
2017-11-28T11:25:44.170Z,99680.97
2017-11-28T11:26:46.628Z,99681.47
2017-11-28T11:27:49.096Z,99676.96
2017-11-28T11:28:51.613Z,99675.83
2017-11-28T11:29:54.086Z,99672.50
2017-11-28T11:30:56.567Z,99676.82
2017-11-28T11:31:59.038Z,99679.20
2017-11-28T11:33:01.520Z,99674.95
2017-11-28T11:34:03.985Z,99677.34
2017-11-28T11:35:06.561Z,99670.16
2017-11-28T11:36:09.103Z,99677.84
2017-11-28T11:37:11.650Z,99676.30
2017-11-28T11:38:14.109Z,99680.36
2017-11-28T11:39:16.595Z,99678.64
2017-11-28T11:40:19.083Z,99673.88
2017-11-28T11:41:21.544Z,99682.91
2017-11-28T11:42:24.013Z,99673.92
2017-11-28T11:43:26.464Z,99673.69
2017-11-28T11:44:28.930Z,99674.34
2017-11-28T11:45:31.435Z,99667.92
2017-11-28T11:46:33.889Z,99663.77
2017-11-28T11:47:36.354Z,99665.97
2017-11-28T11:48:38.844Z,99662.50
2017-11-28T11:49:41.301Z,99669.62
2017-11-28T11:50:43.801Z,99669.42
2017-11-28T11:51:46.253Z,99661.46
2017-11-28T11:52:48.709Z,99656.33
2017-11-28T11:53:51.176Z,99661.86
2017-11-28T11:54:53.637Z,99663.44
2017-11-28T11:55:56.125Z,99660.30
2017-11-28T11:56:58.598Z,99665.39
2017-11-28T11:58:01.339Z,99661.66
2017-11-28T11:59:03.815Z,99662.75
2017-11-28T12:00:06.334Z,99655.23
2017-11-28T12:01:08.812Z,99656.01
2017-11-28T12:02:11.370Z,99658.56
2017-11-28T12:03:13.834Z,99658.63
2017-11-28T12:04:16.297Z,99652.45
2017-11-28T12:05:18.758Z,99650.20
2017-11-28T12:06:21.255Z,99651.73
2017-11-28T12:07:23.726Z,99648.70
2017-11-28T12:08:26.180Z,99645.89
2017-11-28T12:09:28.659Z,99643.87
2017-11-28T12:10:31.124Z,99644.79
2017-11-28T12:11:33.634Z,99644.92
2017-11-28T12:12:36.108Z,99645.42
2017-11-28T12:13:38.582Z,99645.91
2017-11-28T12:14:41.051Z,99644.70
2017-11-28T12:15:43.522Z,99644.94
2017-11-28T12:16:46.011Z,99643.88
2017-11-28T12:17:48.472Z,99641.47
2017-11-28T12:18:50.930Z,99642.40
2017-11-28T12:19:53.405Z,99634.87
2017-11-28T12:20:55.894Z,99635.18
2017-11-28T12:21:58.391Z,99638.48
2017-11-28T12:23:00.859Z,99632.15